createdAt,value
2023-05-17T00:01:47.493Z,65.54
2023-05-17T00:04:13.990Z,65.39
2023-05-17T00:06:41.107Z,65.23
2023-05-17T00:09:07.728Z,65.04
2023-05-17T00:11:34.432Z,65.64
2023-05-17T00:14:01.165Z,65.67
2023-05-17T00:16:28.089Z,65.78
2023-05-17T00:18:54.722Z,65.27
2023-05-17T00:21:21.441Z,65.60
2023-05-17T00:23:47.914Z,65.36
2023-05-17T00:26:14.405Z,65.24
2023-05-17T00:28:41.794Z,65.15
2023-05-17T00:31:08.332Z,65.44
2023-05-17T00:33:34.873Z,65.19
2023-05-17T00:36:01.410Z,65.77
2023-05-17T00:38:27.989Z,65.65
2023-05-17T00:40:54.644Z,65.37
2023-05-17T00:43:21.165Z,65.44
2023-05-17T00:45:49.335Z,65.59
2023-05-17T00:48:16.261Z,65.83
2023-05-17T00:50:43.176Z,66.17
2023-05-17T00:53:11.317Z,65.32
2023-05-17T00:55:37.994Z,65.61
2023-05-17T00:58:04.547Z,65.80
2023-05-17T01:00:31.167Z,65.56
2023-05-17T01:02:57.872Z,66.21
2023-05-17T01:05:24.498Z,65.74
2023-05-17T01:07:51.241Z,66.01
2023-05-17T01:10:17.783Z,65.86
2023-05-17T01:13:02.471Z,66.23
2023-05-17T01:15:33.468Z,66.26
2023-05-17T01:18:28.144Z,65.75
2023-05-17T01:20:58.504Z,66.45
2023-05-17T01:23:41.308Z,66.08
2023-05-17T01:26:13.961Z,66.01
2023-05-17T01:28:43.735Z,66.49
2023-05-17T01:31:11.247Z,65.86
2023-05-17T01:33:38.468Z,66.19
2023-05-17T01:36:05.668Z,65.77
2023-05-17T01:38:32.137Z,65.98
2023-05-17T01:41:08.227Z,65.57
2023-05-17T01:43:48.109Z,66.76
2023-05-17T01:46:38.946Z,66.28
2023-05-17T01:49:08.959Z,65.94
2023-05-17T01:51:45.272Z,66.21
2023-05-17T01:54:13.991Z,66.79
2023-05-17T01:56:47.936Z,66.73
2023-05-17T01:59:21.656Z,66.95
2023-05-17T02:01:49.305Z,66.41
2023-05-17T02:04:15.864Z,67.12
2023-05-17T02:06:42.627Z,66.59
2023-05-17T02:09:09.099Z,67.05
2023-05-17T02:11:36.288Z,66.75
2023-05-17T02:14:02.760Z,66.65
2023-05-17T02:16:29.298Z,66.64
2023-05-17T02:18:56.020Z,66.82
2023-05-17T02:21:22.603Z,66.83
2023-05-17T02:23:49.109Z,66.17
2023-05-17T02:26:18.785Z,66.77
2023-05-17T02:28:45.369Z,66.24
2023-05-17T02:31:11.851Z,66.72
2023-05-17T02:33:38.605Z,66.70
2023-05-17T02:36:05.402Z,66.77
2023-05-17T02:38:32.002Z,67.57
2023-05-17T02:40:58.472Z,67.18
2023-05-17T02:43:25.216Z,66.88
2023-05-17T02:45:51.785Z,67.26
2023-05-17T02:48:18.598Z,68.00
2023-05-17T02:50:45.398Z,67.81
2023-05-17T02:53:12.024Z,67.28
2023-05-17T02:55:38.951Z,67.66
2023-05-17T02:58:05.633Z,67.64
2023-05-17T03:00:33.019Z,67.57
2023-05-17T03:02:59.718Z,67.51
2023-05-17T03:05:26.481Z,68.27
2023-05-17T03:07:53.622Z,68.58
2023-05-17T03:10:20.571Z,68.15
2023-05-17T03:12:47.822Z,68.38
2023-05-17T03:15:18.203Z,68.76
2023-05-17T03:17:45.665Z,69.02
2023-05-17T03:20:13.097Z,68.94
2023-05-17T03:22:39.607Z,69.05
2023-05-17T03:25:06.797Z,68.92
2023-05-17T03:27:33.709Z,69.41
2023-05-17T03:30:00.658Z,69.03
2023-05-17T03:32:28.718Z,68.22
2023-05-17T03:34:55.379Z,68.86
2023-05-17T03:37:22.400Z,68.35
2023-05-17T03:39:48.874Z,68.42
2023-05-17T03:42:15.524Z,68.48
2023-05-17T03:44:42.232Z,69.68
2023-05-17T03:47:08.917Z,69.07
2023-05-17T03:49:35.376Z,69.61
2023-05-17T03:52:03.559Z,69.67
2023-05-17T03:54:30.104Z,69.72
2023-05-17T03:56:56.620Z,69.54
2023-05-17T03:59:23.771Z,69.82
2023-05-17T04:01:50.551Z,70.49
2023-05-17T04:04:17.105Z,69.92
2023-05-17T04:06:43.704Z,69.82
2023-05-17T04:09:11.046Z,69.56
2023-05-17T04:11:40.455Z,70.69
2023-05-17T04:14:07.062Z,70.34
2023-05-17T04:16:33.826Z,70.29
2023-05-17T04:19:01.090Z,70.03
2023-05-17T04:21:28.977Z,70.11
2023-05-17T04:23:56.105Z,70.35
2023-05-17T04:26:22.783Z,69.70
2023-05-17T04:28:49.545Z,70.80
2023-05-17T04:31:17.856Z,70.51
2023-05-17T04:33:45.142Z,70.78
2023-05-17T04:36:11.992Z,71.66
2023-05-17T04:38:39.984Z,70.82
2023-05-17T04:41:09.457Z,72.00
2023-05-17T04:43:38.250Z,70.85
2023-05-17T04:46:08.935Z,71.96
2023-05-17T04:48:36.000Z,70.87
2023-05-17T04:51:04.480Z,70.88
2023-05-17T04:53:31.853Z,71.19
2023-05-17T04:56:00.674Z,71.42
2023-05-17T04:58:27.456Z,71.20
2023-05-17T05:00:57.790Z,70.83
2023-05-17T05:03:24.412Z,71.38
2023-05-17T05:05:51.452Z,70.45
2023-05-17T05:08:18.138Z,71.46
2023-05-17T05:10:46.341Z,70.31
2023-05-17T05:13:15.423Z,70.27
2023-05-17T05:15:42.160Z,70.81
2023-05-17T05:18:08.935Z,71.04
2023-05-17T05:20:35.551Z,70.17
2023-05-17T05:23:05.912Z,70.67
2023-05-17T05:25:34.657Z,69.57
2023-05-17T05:28:01.770Z,70.18
2023-05-17T05:30:29.569Z,69.72
2023-05-17T05:32:56.715Z,70.08
2023-05-17T05:35:29.408Z,69.96
2023-05-17T05:37:57.993Z,68.97
2023-05-17T05:40:24.871Z,69.28
2023-05-17T05:42:52.347Z,69.35
2023-05-17T05:45:21.617Z,68.90
2023-05-17T05:47:49.648Z,68.87
2023-05-17T05:50:16.387Z,69.57
2023-05-17T05:52:44.633Z,68.95
2023-05-17T05:55:11.305Z,69.31
2023-05-17T05:57:37.821Z,69.30
2023-05-17T06:00:05.857Z,69.01
2023-05-17T06:02:39.365Z,68.91
2023-05-17T06:05:06.146Z,68.51
2023-05-17T06:07:35.564Z,68.53
2023-05-17T06:10:02.086Z,68.81
2023-05-17T06:12:28.575Z,68.35
2023-05-17T06:14:55.110Z,69.02
2023-05-17T06:17:21.627Z,68.58
2023-05-17T06:19:49.311Z,68.70
2023-05-17T06:22:16.200Z,68.18
2023-05-17T06:24:42.737Z,67.84
2023-05-17T06:27:09.318Z,67.78
2023-05-17T06:29:36.281Z,67.39
2023-05-17T06:32:02.837Z,66.76
2023-05-17T06:34:29.320Z,66.61
2023-05-17T06:36:55.928Z,66.03
2023-05-17T06:39:22.461Z,65.96
2023-05-17T06:41:48.947Z,65.56
2023-05-17T06:44:17.463Z,65.32
2023-05-17T06:46:43.905Z,64.30
2023-05-17T06:49:10.426Z,64.33
2023-05-17T06:51:36.892Z,64.42
2023-05-17T06:54:03.456Z,63.72
2023-05-17T06:56:30.109Z,63.67
2023-05-17T06:58:56.690Z,63.43
2023-05-17T07:01:23.128Z,63.46
2023-05-17T07:03:49.874Z,62.79
2023-05-17T07:06:16.381Z,62.50
2023-05-17T07:08:42.889Z,62.43
2023-05-17T07:11:09.338Z,62.02
2023-05-17T07:13:36.056Z,62.46
2023-05-17T07:16:02.577Z,61.81
2023-05-17T07:18:29.137Z,60.46
2023-05-17T07:20:55.815Z,60.79
2023-05-17T07:23:22.268Z,60.69
2023-05-17T07:25:48.737Z,60.59
2023-05-17T07:28:15.234Z,60.61
2023-05-17T07:30:41.696Z,60.54
2023-05-17T07:33:08.211Z,60.25
2023-05-17T07:35:34.717Z,60.10
2023-05-17T07:38:01.189Z,59.79
2023-05-17T07:40:27.743Z,59.65
2023-05-17T07:42:54.191Z,58.29
2023-05-17T07:45:20.858Z,57.99
2023-05-17T07:47:47.358Z,57.82
2023-05-17T07:50:13.967Z,58.26
2023-05-17T07:52:40.450Z,57.86
2023-05-17T07:55:07.837Z,57.70
2023-05-17T07:57:36.853Z,57.78
2023-05-17T08:00:04.358Z,57.21
2023-05-17T08:02:38.618Z,56.77
2023-05-17T08:05:05.443Z,57.02
2023-05-17T08:07:31.908Z,56.81
2023-05-17T08:09:58.367Z,55.81
2023-05-17T08:12:25.399Z,56.03
2023-05-17T08:14:51.884Z,55.89
2023-05-17T08:17:18.354Z,56.25
2023-05-17T08:19:44.900Z,56.01
2023-05-17T08:22:11.498Z,56.23
2023-05-17T08:24:37.960Z,55.81
2023-05-17T08:27:05.971Z,55.52
2023-05-17T08:29:32.416Z,54.38
2023-05-17T08:31:58.938Z,53.82
2023-05-17T08:34:25.673Z,54.25
2023-05-17T08:36:53.539Z,53.96
2023-05-17T08:39:21.118Z,52.29
2023-05-17T08:41:48.422Z,53.21
2023-05-17T08:44:16.921Z,53.69
2023-05-17T08:46:44.378Z,53.78
2023-05-17T08:49:15.825Z,53.67
2023-05-17T08:51:43.687Z,53.31
2023-05-17T08:54:10.247Z,52.73
2023-05-17T08:56:39.369Z,51.88
2023-05-17T08:59:08.447Z,51.99
2023-05-17T09:01:35.088Z,52.10
2023-05-17T09:04:01.665Z,51.98
2023-05-17T09:06:30.052Z,52.06
2023-05-17T09:08:58.484Z,51.06
2023-05-17T09:11:27.837Z,51.55
2023-05-17T09:13:58.769Z,50.15
2023-05-17T09:16:28.357Z,50.25
2023-05-17T09:18:56.239Z,49.90
2023-05-17T09:21:23.951Z,49.09
2023-05-17T09:24:05.626Z,49.03
2023-05-17T09:26:45.691Z,48.35
2023-05-17T09:29:14.081Z,48.29
2023-05-17T09:31:41.373Z,47.59
2023-05-17T09:34:08.146Z,47.44
2023-05-17T09:36:39.140Z,48.17
2023-05-17T09:39:10.665Z,48.72
2023-05-17T09:41:46.677Z,49.38
2023-05-17T09:44:14.564Z,49.11
2023-05-17T09:46:48.770Z,48.92
2023-05-17T09:49:16.733Z,48.67
2023-05-17T09:51:45.395Z,48.17
2023-05-17T09:54:11.967Z,47.89
2023-05-17T09:56:39.095Z,47.52
2023-05-17T09:59:12.375Z,47.46
2023-05-17T10:01:41.223Z,47.45
2023-05-17T10:04:12.207Z,47.83
2023-05-17T10:06:49.735Z,47.32
2023-05-17T10:09:21.640Z,47.96
2023-05-17T10:11:48.478Z,48.46
2023-05-17T10:14:23.556Z,48.38
2023-05-17T10:16:51.689Z,48.44
2023-05-17T10:19:20.284Z,47.66
2023-05-17T10:21:51.810Z,46.36
2023-05-17T10:24:20.610Z,45.87
2023-05-17T10:26:50.009Z,45.65
2023-05-17T10:29:16.886Z,45.65
2023-05-17T10:31:43.713Z,46.21
2023-05-17T10:34:11.976Z,47.09
2023-05-17T10:36:39.271Z,46.86
2023-05-17T10:39:08.011Z,47.66
2023-05-17T10:41:36.151Z,47.38
2023-05-17T10:44:05.354Z,46.82
2023-05-17T10:46:32.303Z,47.14
2023-05-17T10:49:00.549Z,48.08
2023-05-17T10:51:34.058Z,48.23
2023-05-17T10:54:05.002Z,48.57
2023-05-17T10:56:32.179Z,48.12
2023-05-17T10:59:19.908Z,48.68
2023-05-17T11:02:03.388Z,48.69
2023-05-17T11:04:38.391Z,48.60
2023-05-17T11:07:17.361Z,48.89
2023-05-17T11:09:45.069Z,48.46
2023-05-17T11:12:13.874Z,49.08
2023-05-17T11:14:46.140Z,47.75
2023-05-17T11:17:17.966Z,47.18
2023-05-17T11:20:13.205Z,45.86
2023-05-17T11:22:55.490Z,46.61
2023-05-17T11:25:22.165Z,46.89
2023-05-17T11:27:51.562Z,46.81
2023-05-17T11:30:22.038Z,47.59
2023-05-17T11:32:54.125Z,47.55
2023-05-17T11:35:24.737Z,47.83
2023-05-17T11:38:11.733Z,46.61
2023-05-17T11:40:38.787Z,45.88
2023-05-17T11:43:19.434Z,44.79
2023-05-17T11:45:53.089Z,45.51
2023-05-17T11:48:22.268Z,45.75
2023-05-17T11:50:51.122Z,45.15
2023-05-17T11:53:18.086Z,44.57
2023-05-17T11:55:50.281Z,44.69
2023-05-17T11:58:19.012Z,45.44
2023-05-17T12:00:45.862Z,44.98
2023-05-17T12:03:22.578Z,44.72
2023-05-17T12:05:52.097Z,44.07
2023-05-17T12:08:20.367Z,43.97
2023-05-17T12:10:52.460Z,43.93
2023-05-17T12:13:20.901Z,44.33
2023-05-17T12:16:02.597Z,44.61
2023-05-17T12:18:40.467Z,45.02
2023-05-17T12:21:09.255Z,45.16
2023-05-17T12:23:38.194Z,45.00
2023-05-17T12:26:16.130Z,44.81
2023-05-17T12:28:52.732Z,44.88
2023-05-17T12:31:24.846Z,45.78
2023-05-17T12:33:51.608Z,46.15
2023-05-17T12:36:18.928Z,45.75
2023-05-17T12:38:47.138Z,45.07
2023-05-17T12:41:15.703Z,44.89
2023-05-17T12:43:44.642Z,45.02
2023-05-17T12:46:19.295Z,44.09
2023-05-17T12:48:46.990Z,43.74
2023-05-17T12:51:15.509Z,43.49
2023-05-17T12:53:44.240Z,44.07
2023-05-17T12:56:23.149Z,44.37
2023-05-17T12:59:14.226Z,44.45
2023-05-17T13:01:51.752Z,45.66
2023-05-17T13:04:19.683Z,46.53
2023-05-17T13:06:54.894Z,47.32
2023-05-17T13:09:23.940Z,47.48
2023-05-17T13:11:55.329Z,47.86
2023-05-17T13:14:41.217Z,48.47
2023-05-17T13:17:12.002Z,48.38
2023-05-17T13:19:39.631Z,47.76
2023-05-17T13:22:06.662Z,47.60
2023-05-17T13:24:38.095Z,48.00
2023-05-17T13:27:06.020Z,48.57
2023-05-17T13:29:39.342Z,49.02
2023-05-17T13:32:07.959Z,49.07
2023-05-17T13:34:34.643Z,49.47
2023-05-17T13:37:01.757Z,49.83
2023-05-17T13:39:28.243Z,50.38
2023-05-17T13:41:54.721Z,50.66
2023-05-17T13:44:21.348Z,50.64
2023-05-17T13:46:47.878Z,51.19
2023-05-17T13:49:14.698Z,51.54
2023-05-17T13:51:41.628Z,51.64
2023-05-17T13:54:08.140Z,51.86
2023-05-17T13:56:34.853Z,52.13
2023-05-17T13:59:01.571Z,50.86
2023-05-17T14:01:28.032Z,49.46
2023-05-17T14:03:55.332Z,49.98
2023-05-17T14:06:22.083Z,49.85
2023-05-17T14:08:49.556Z,48.96
2023-05-17T14:11:16.101Z,47.28
2023-05-17T14:13:42.941Z,47.75
2023-05-17T14:16:09.455Z,47.09
2023-05-17T14:18:36.191Z,46.61
2023-05-17T14:21:03.518Z,45.66
2023-05-17T14:23:30.137Z,45.93
2023-05-17T14:25:57.711Z,46.74
2023-05-17T14:28:24.474Z,47.19
2023-05-17T14:30:51.829Z,47.49
2023-05-17T14:33:18.621Z,48.57
2023-05-17T14:35:45.239Z,48.70
2023-05-17T14:38:11.797Z,49.45
2023-05-17T14:40:38.319Z,49.52
2023-05-17T14:43:05.050Z,50.03
2023-05-17T14:45:31.833Z,50.16
2023-05-17T14:47:58.455Z,50.29
2023-05-17T14:50:25.025Z,50.29
2023-05-17T14:52:51.527Z,49.82
2023-05-17T14:55:18.712Z,50.81
2023-05-17T14:57:45.856Z,50.67
2023-05-17T15:00:13.673Z,50.70
2023-05-17T15:02:40.284Z,50.14
2023-05-17T15:05:07.303Z,50.39
2023-05-17T15:07:34.332Z,50.56
2023-05-17T15:10:01.391Z,50.33
2023-05-17T15:12:28.305Z,48.89
2023-05-17T15:14:54.781Z,49.26
2023-05-17T15:17:22.052Z,49.30
2023-05-17T15:19:48.916Z,49.00
2023-05-17T15:22:15.884Z,49.43
2023-05-17T15:24:42.459Z,48.46
2023-05-17T15:27:12.544Z,47.81
2023-05-17T15:29:40.839Z,47.32
2023-05-17T15:32:07.511Z,47.47
2023-05-17T15:34:34.154Z,46.33
2023-05-17T15:37:01.101Z,46.05
2023-05-17T15:39:28.070Z,45.46
2023-05-17T15:41:54.526Z,44.60
2023-05-17T15:44:23.748Z,45.71
2023-05-17T15:46:50.833Z,45.34
2023-05-17T15:49:17.376Z,45.84
2023-05-17T15:51:43.896Z,46.04
2023-05-17T15:54:10.382Z,45.55
2023-05-17T15:56:38.311Z,45.26
2023-05-17T15:59:05.641Z,45.34
2023-05-17T16:01:32.148Z,45.78
2023-05-17T16:03:58.645Z,46.32
2023-05-17T16:06:25.287Z,46.64
2023-05-17T16:08:51.843Z,46.76
2023-05-17T16:11:18.362Z,46.60
2023-05-17T16:13:44.847Z,46.70
2023-05-17T16:16:13.352Z,46.08
2023-05-17T16:18:40.005Z,46.04
2023-05-17T16:21:06.708Z,45.88
2023-05-17T16:23:33.358Z,45.08
2023-05-17T16:26:00.001Z,45.40
2023-05-17T16:28:26.526Z,45.49
2023-05-17T16:30:53.145Z,45.02
2023-05-17T16:33:20.607Z,45.23
2023-05-17T16:35:48.846Z,45.28
2023-05-17T16:38:16.582Z,45.56
2023-05-17T16:40:43.149Z,45.71
2023-05-17T16:43:09.975Z,46.29
2023-05-17T16:45:36.553Z,46.24
2023-05-17T16:48:03.218Z,46.85
2023-05-17T16:50:30.009Z,46.00
2023-05-17T16:52:56.801Z,46.03
2023-05-17T16:55:23.369Z,45.57
2023-05-17T16:57:49.909Z,46.34
2023-05-17T17:00:16.844Z,46.60
2023-05-17T17:02:43.361Z,46.88
2023-05-17T17:05:10.352Z,47.13
2023-05-17T17:07:36.811Z,47.03
2023-05-17T17:10:03.414Z,46.75
2023-05-17T17:12:30.077Z,46.99
2023-05-17T17:14:56.557Z,47.19
2023-05-17T17:17:22.983Z,47.29
2023-05-17T17:19:49.473Z,47.27
2023-05-17T17:22:16.646Z,47.77
2023-05-17T17:24:44.400Z,48.09
2023-05-17T17:27:10.935Z,48.82
2023-05-17T17:29:37.452Z,48.66
2023-05-17T17:32:05.041Z,49.10
2023-05-17T17:34:31.660Z,48.42
2023-05-17T17:36:58.140Z,48.57
2023-05-17T17:39:25.869Z,48.33
2023-05-17T17:41:52.330Z,47.18
2023-05-17T17:44:19.556Z,45.13
2023-05-17T17:46:46.110Z,42.32
2023-05-17T17:49:12.635Z,40.28
2023-05-17T17:51:39.098Z,38.86
2023-05-17T17:54:07.262Z,38.83
2023-05-17T17:56:33.910Z,39.89
2023-05-17T17:59:00.340Z,41.22
2023-05-17T18:01:27.464Z,43.16
2023-05-17T18:03:54.096Z,44.79
2023-05-17T18:06:21.169Z,45.76
2023-05-17T18:08:47.643Z,46.11
2023-05-17T18:11:14.218Z,47.60
2023-05-17T18:13:40.771Z,48.22
2023-05-17T18:16:07.346Z,48.95
2023-05-17T18:18:34.060Z,49.79
2023-05-17T18:21:00.631Z,50.75
2023-05-17T18:23:27.163Z,51.28
2023-05-17T18:25:53.603Z,51.67
2023-05-17T18:28:29.989Z,51.49
2023-05-17T18:31:06.742Z,52.49
2023-05-17T18:33:34.196Z,52.42
2023-05-17T18:36:00.867Z,53.34
2023-05-17T18:38:27.371Z,53.64
2023-05-17T18:40:53.779Z,54.27
2023-05-17T18:43:20.472Z,54.53
2023-05-17T18:45:46.946Z,54.75
2023-05-17T18:48:13.411Z,55.14
2023-05-17T18:50:39.939Z,55.42
2023-05-17T18:53:06.618Z,55.90
2023-05-17T18:55:33.157Z,55.91
2023-05-17T18:57:59.723Z,56.26
2023-05-17T19:00:26.348Z,56.46
2023-05-17T19:02:53.207Z,56.91
2023-05-17T19:05:19.739Z,56.95
2023-05-17T19:07:46.187Z,57.35
2023-05-17T19:10:12.637Z,57.64
2023-05-17T19:12:39.244Z,57.32
2023-05-17T19:15:06.166Z,58.16
2023-05-17T19:17:32.735Z,58.07
2023-05-17T19:19:59.275Z,58.57
2023-05-17T19:22:25.935Z,58.86
2023-05-17T19:24:52.497Z,58.89
2023-05-17T19:27:19.699Z,59.31
2023-05-17T19:29:47.086Z,59.15
2023-05-17T19:32:13.692Z,59.73
2023-05-17T19:34:40.416Z,59.86
2023-05-17T19:37:07.198Z,59.87
2023-05-17T19:39:33.690Z,60.60
2023-05-17T19:42:00.172Z,60.27
2023-05-17T19:44:26.756Z,60.45
2023-05-17T19:46:53.540Z,60.87
2023-05-17T19:49:20.190Z,61.22
2023-05-17T19:51:48.124Z,61.38
2023-05-17T19:54:14.699Z,61.31
2023-05-17T19:56:41.444Z,61.46
2023-05-17T19:59:08.022Z,61.66
2023-05-17T20:01:34.685Z,61.89
2023-05-17T20:04:01.395Z,62.06
2023-05-17T20:06:27.955Z,62.30
2023-05-17T20:08:54.410Z,62.14
2023-05-17T20:11:21.603Z,62.28
2023-05-17T20:13:48.076Z,62.04
2023-05-17T20:16:14.800Z,62.17
2023-05-17T20:18:45.124Z,62.67
2023-05-17T20:21:15.081Z,62.74
2023-05-17T20:23:41.716Z,63.10
2023-05-17T20:26:08.211Z,63.01
2023-05-17T20:28:34.683Z,62.85
2023-05-17T20:31:01.230Z,63.21
2023-05-17T20:33:27.828Z,63.31
2023-05-17T20:35:54.378Z,63.02
2023-05-17T20:38:21.734Z,63.23
2023-05-17T20:40:48.498Z,63.59
2023-05-17T20:43:16.750Z,63.75
2023-05-17T20:45:43.626Z,63.63
2023-05-17T20:48:10.276Z,63.63
2023-05-17T20:50:37.109Z,63.71
2023-05-17T20:53:03.692Z,63.97
2023-05-17T20:55:30.486Z,63.79
2023-05-17T20:57:57.052Z,64.15
2023-05-17T21:00:24.721Z,63.74
2023-05-17T21:02:51.394Z,63.86
2023-05-17T21:05:18.116Z,64.26
2023-05-17T21:07:47.741Z,64.43
2023-05-17T21:10:14.239Z,64.28
2023-05-17T21:12:40.736Z,64.24
2023-05-17T21:15:15.989Z,65.00
2023-05-17T21:17:43.487Z,65.35
2023-05-17T21:20:10.755Z,64.81
2023-05-17T21:22:37.630Z,64.73
2023-05-17T21:25:04.731Z,65.30
2023-05-17T21:27:31.383Z,65.34
2023-05-17T21:29:57.901Z,65.34
2023-05-17T21:32:24.383Z,66.00
2023-05-17T21:34:53.719Z,66.05
2023-05-17T21:37:21.175Z,66.53
2023-05-17T21:39:47.664Z,66.53
2023-05-17T21:42:14.247Z,65.98
2023-05-17T21:44:40.843Z,66.67
2023-05-17T21:47:07.469Z,66.42
2023-05-17T21:49:34.168Z,66.33
2023-05-17T21:52:00.785Z,66.75
2023-05-17T21:54:27.357Z,67.08
2023-05-17T21:56:54.016Z,67.02
2023-05-17T21:59:20.565Z,67.30
2023-05-17T22:01:47.290Z,66.91
2023-05-17T22:04:13.834Z,67.17
2023-05-17T22:06:40.345Z,67.80
2023-05-17T22:09:07.069Z,67.87
2023-05-17T22:11:38.166Z,68.08
2023-05-17T22:14:08.285Z,67.45
2023-05-17T22:16:36.068Z,67.18
2023-05-17T22:19:03.889Z,67.50
2023-05-17T22:21:31.889Z,67.43
2023-05-17T22:23:59.056Z,67.55
2023-05-17T22:26:25.721Z,67.52
2023-05-17T22:28:52.399Z,67.82
2023-05-17T22:31:19.723Z,68.29
2023-05-17T22:33:46.719Z,68.67
2023-05-17T22:36:14.089Z,67.91
2023-05-17T22:38:42.650Z,68.42
2023-05-17T22:41:10.589Z,68.36
2023-05-17T22:43:37.570Z,68.48
2023-05-17T22:46:04.369Z,69.44
2023-05-17T22:48:32.011Z,69.54
2023-05-17T22:51:00.875Z,69.31
2023-05-17T22:53:31.082Z,69.90
2023-05-17T22:55:57.563Z,70.16
2023-05-17T22:58:24.062Z,69.98
2023-05-17T23:00:51.290Z,71.08
2023-05-17T23:03:19.157Z,70.24
2023-05-17T23:05:45.921Z,70.43
2023-05-17T23:08:15.274Z,70.58
2023-05-17T23:10:45.423Z,70.71
2023-05-17T23:13:12.710Z,70.42
2023-05-17T23:15:40.858Z,70.58
2023-05-17T23:18:07.608Z,71.40
2023-05-17T23:20:34.966Z,71.76
2023-05-17T23:23:01.728Z,71.52
2023-05-17T23:25:29.014Z,72.00
2023-05-17T23:27:58.126Z,71.34
2023-05-17T23:30:26.123Z,71.81
2023-05-17T23:32:55.707Z,72.37
2023-05-17T23:35:25.117Z,72.99
2023-05-17T23:37:51.760Z,72.19
2023-05-17T23:40:18.284Z,71.85
2023-05-17T23:42:44.852Z,71.54
2023-05-17T23:45:11.404Z,72.56
2023-05-17T23:47:40.698Z,72.03
2023-05-17T23:50:11.849Z,72.57
2023-05-17T23:52:39.152Z,72.68
2023-05-17T23:55:08.922Z,72.48
2023-05-17T23:57:35.558Z,73.32
